createdAt,value
2023-03-19T00:00:21.687Z,53.26
2023-03-19T00:02:51.387Z,54.34
2023-03-19T00:05:19.184Z,54.46
2023-03-19T00:07:46.104Z,54.43
2023-03-19T00:10:13.150Z,54.14
2023-03-19T00:12:39.980Z,54.31
2023-03-19T00:15:09.192Z,54.64
2023-03-19T00:17:36.521Z,55.09
2023-03-19T00:20:03.514Z,55.62
2023-03-19T00:22:30.225Z,55.38
2023-03-19T00:24:56.960Z,55.66
2023-03-19T00:27:23.909Z,56.50
2023-03-19T00:29:50.657Z,57.37
2023-03-19T00:32:17.436Z,58.44
2023-03-19T00:34:44.519Z,58.35
2023-03-19T00:37:12.373Z,58.51
2023-03-19T00:39:39.989Z,58.77
2023-03-19T00:42:07.153Z,58.52
2023-03-19T00:44:34.041Z,58.27
2023-03-19T00:47:03.018Z,58.65
2023-03-19T00:49:29.797Z,59.62
2023-03-19T00:51:56.507Z,59.90
2023-03-19T00:54:23.313Z,59.80
2023-03-19T00:56:50.385Z,60.59
2023-03-19T00:59:17.405Z,60.82
2023-03-19T01:01:44.349Z,61.00
2023-03-19T01:04:11.311Z,61.13
2023-03-19T01:06:38.165Z,61.53
2023-03-19T01:09:04.910Z,62.24
2023-03-19T01:11:32.366Z,62.75
2023-03-19T01:13:59.289Z,63.56
2023-03-19T01:16:26.143Z,63.97
2023-03-19T01:18:53.588Z,64.54
2023-03-19T01:21:21.333Z,64.77
2023-03-19T01:23:49.472Z,64.70
2023-03-19T01:26:16.846Z,65.46
2023-03-19T01:28:44.527Z,64.98
2023-03-19T01:31:12.159Z,65.13
2023-03-19T01:33:52.833Z,64.90
2023-03-19T01:36:32.340Z,65.28
2023-03-19T01:39:02.179Z,65.49
2023-03-19T01:41:28.926Z,65.86
2023-03-19T01:44:02.407Z,66.60
2023-03-19T01:46:38.511Z,66.68
2023-03-19T01:49:23.104Z,66.79
2023-03-19T01:51:55.949Z,67.15
2023-03-19T01:54:36.549Z,67.21
2023-03-19T01:57:16.447Z,67.36
2023-03-19T02:00:01.756Z,67.30
2023-03-19T02:02:47.573Z,67.56
2023-03-19T02:05:25.968Z,67.35
2023-03-19T02:08:00.224Z,67.70
2023-03-19T02:10:28.809Z,67.56
2023-03-19T02:12:55.947Z,67.88
2023-03-19T02:15:23.074Z,67.95
2023-03-19T02:17:50.532Z,68.43
2023-03-19T02:20:25.505Z,68.54
2023-03-19T02:23:03.991Z,68.56
2023-03-19T02:25:40.597Z,68.75
2023-03-19T02:28:09.945Z,69.15
2023-03-19T02:30:38.240Z,69.16
2023-03-19T02:33:13.217Z,69.35
2023-03-19T02:35:42.164Z,69.41
2023-03-19T02:38:11.718Z,69.40
2023-03-19T02:40:43.603Z,69.27
2023-03-19T02:43:10.377Z,69.43
2023-03-19T02:45:37.138Z,69.60
2023-03-19T02:48:04.028Z,69.91
2023-03-19T02:50:31.265Z,69.97
2023-03-19T02:52:58.176Z,70.22
2023-03-19T02:55:25.000Z,69.98
2023-03-19T02:57:51.858Z,70.13
2023-03-19T03:00:20.944Z,69.98
2023-03-19T03:02:47.963Z,69.97
2023-03-19T03:05:14.834Z,69.99
2023-03-19T03:07:43.951Z,70.06
2023-03-19T03:10:11.815Z,70.05
2023-03-19T03:12:39.179Z,69.76
2023-03-19T03:15:07.150Z,69.85
2023-03-19T03:17:39.150Z,69.90
2023-03-19T03:20:07.927Z,70.14
2023-03-19T03:22:35.015Z,70.30
2023-03-19T03:25:02.205Z,70.65
2023-03-19T03:27:30.451Z,70.72
2023-03-19T03:29:57.524Z,70.63
2023-03-19T03:32:25.241Z,70.86
2023-03-19T03:34:52.168Z,70.90
2023-03-19T03:37:19.871Z,70.78
2023-03-19T03:39:46.820Z,70.67
2023-03-19T03:42:13.629Z,70.80
2023-03-19T03:44:40.756Z,70.87
2023-03-19T03:47:09.197Z,70.96
2023-03-19T03:49:36.221Z,70.71
2023-03-19T03:52:03.068Z,70.84
2023-03-19T03:54:30.796Z,70.85
2023-03-19T03:56:57.628Z,71.10
2023-03-19T03:59:25.462Z,71.21
2023-03-19T04:01:52.424Z,71.47
2023-03-19T04:04:20.278Z,71.76
2023-03-19T04:06:47.445Z,71.92
2023-03-19T04:09:28.876Z,71.83
2023-03-19T04:11:55.723Z,71.89
2023-03-19T04:14:22.528Z,71.74
2023-03-19T04:16:49.457Z,71.57
2023-03-19T04:19:16.296Z,71.39
2023-03-19T04:21:44.927Z,71.49
2023-03-19T04:24:11.867Z,71.63
2023-03-19T04:26:39.595Z,71.12
2023-03-19T04:29:09.483Z,71.08
2023-03-19T04:31:36.553Z,70.98
2023-03-19T04:34:03.546Z,71.31
2023-03-19T04:36:31.143Z,71.63
2023-03-19T04:38:58.127Z,71.84
2023-03-19T04:41:26.359Z,72.02
2023-03-19T04:44:02.291Z,72.05
2023-03-19T04:46:29.887Z,71.84
2023-03-19T04:48:56.708Z,71.80
2023-03-19T04:51:23.713Z,71.77
2023-03-19T04:53:51.301Z,71.66
2023-03-19T04:56:18.936Z,71.70
2023-03-19T04:58:46.242Z,71.98
2023-03-19T05:01:13.300Z,72.25
2023-03-19T05:03:57.140Z,72.42
2023-03-19T05:06:24.469Z,72.32
2023-03-19T05:08:51.359Z,72.47
2023-03-19T05:11:18.878Z,72.66
2023-03-19T05:13:57.447Z,72.92
2023-03-19T05:16:24.979Z,72.60
2023-03-19T05:18:53.222Z,72.90
2023-03-19T05:21:20.350Z,73.00
2023-03-19T05:23:52.388Z,72.86
2023-03-19T05:26:19.201Z,73.00
2023-03-19T05:29:05.087Z,73.12
2023-03-19T05:31:39.529Z,73.22
2023-03-19T05:34:06.610Z,73.40
2023-03-19T05:36:34.719Z,73.39
2023-03-19T05:39:06.888Z,73.40
2023-03-19T05:41:36.099Z,73.61
2023-03-19T05:44:05.181Z,73.57
2023-03-19T05:46:42.285Z,73.84
2023-03-19T05:49:10.745Z,73.91
2023-03-19T05:51:37.479Z,73.95
2023-03-19T05:54:06.170Z,73.69
2023-03-19T05:56:36.549Z,73.53
2023-03-19T05:59:18.950Z,73.86
2023-03-19T06:01:52.908Z,74.15
2023-03-19T06:04:19.943Z,74.16
2023-03-19T06:06:47.618Z,74.44
2023-03-19T06:09:14.825Z,74.48
2023-03-19T06:11:43.701Z,74.18
2023-03-19T06:14:27.056Z,73.54
2023-03-19T06:17:13.907Z,73.15
2023-03-19T06:19:40.884Z,72.17
2023-03-19T06:22:09.059Z,71.49
2023-03-19T06:24:37.000Z,71.13
2023-03-19T06:27:04.232Z,70.48
2023-03-19T06:29:31.337Z,69.87
2023-03-19T06:32:02.783Z,67.76
2023-03-19T06:34:38.589Z,66.61
2023-03-19T06:37:05.742Z,65.92
2023-03-19T06:39:33.150Z,64.32
2023-03-19T06:41:59.920Z,62.51
2023-03-19T06:44:27.421Z,61.35
2023-03-19T06:46:54.196Z,59.75
2023-03-19T06:49:21.992Z,57.64
2023-03-19T06:51:48.857Z,56.76
2023-03-19T06:54:15.928Z,55.11
2023-03-19T06:56:42.757Z,53.79
2023-03-19T06:59:13.381Z,51.44
2023-03-19T07:01:41.775Z,48.74
2023-03-19T07:04:09.785Z,47.46
2023-03-19T07:06:36.615Z,45.96
2023-03-19T07:09:04.300Z,44.06
2023-03-19T07:11:33.805Z,42.49
2023-03-19T07:14:02.095Z,40.49
2023-03-19T07:16:28.922Z,39.78
2023-03-19T07:18:56.919Z,38.57
2023-03-19T07:21:23.835Z,37.23
2023-03-19T07:23:51.032Z,36.40
2023-03-19T07:26:18.188Z,35.37
2023-03-19T07:28:45.090Z,34.46
2023-03-19T07:31:11.866Z,33.50
2023-03-19T07:33:38.626Z,33.24
2023-03-19T07:36:06.092Z,32.56
2023-03-19T07:38:32.852Z,32.78
2023-03-19T07:41:02.664Z,32.09
2023-03-19T07:43:31.298Z,31.71
2023-03-19T07:45:58.719Z,31.97
2023-03-19T07:48:25.864Z,30.46
2023-03-19T07:50:53.185Z,30.77
2023-03-19T07:53:20.603Z,31.16
2023-03-19T07:55:48.476Z,31.40
2023-03-19T07:58:15.535Z,31.58
2023-03-19T08:00:42.640Z,31.46
2023-03-19T08:03:09.432Z,31.35
2023-03-19T08:05:36.207Z,30.50
2023-03-19T08:08:03.088Z,30.26
2023-03-19T08:10:29.897Z,29.02
2023-03-19T08:12:56.659Z,28.73
2023-03-19T08:15:23.409Z,27.73
2023-03-19T08:17:58.143Z,27.77
2023-03-19T08:20:25.008Z,28.14
2023-03-19T08:22:52.171Z,27.37
2023-03-19T08:25:19.086Z,27.04
2023-03-19T08:27:46.275Z,26.55
2023-03-19T08:30:13.582Z,26.11
2023-03-19T08:32:40.793Z,25.68
2023-03-19T08:35:08.237Z,24.64
2023-03-19T08:37:34.986Z,24.04
2023-03-19T08:40:01.782Z,24.08
2023-03-19T08:42:29.325Z,24.14
2023-03-19T08:44:56.101Z,24.98
2023-03-19T08:47:24.509Z,25.58
2023-03-19T08:49:52.537Z,25.72
2023-03-19T08:52:20.598Z,25.43
2023-03-19T08:54:47.575Z,25.01
2023-03-19T08:57:14.341Z,24.96
2023-03-19T08:59:41.095Z,24.13
2023-03-19T09:02:10.686Z,23.97
2023-03-19T09:04:39.198Z,24.16
2023-03-19T09:07:06.226Z,23.68
2023-03-19T09:09:33.204Z,23.24
2023-03-19T09:12:00.124Z,23.03
2023-03-19T09:14:27.295Z,23.30
2023-03-19T09:16:55.776Z,22.75
2023-03-19T09:19:23.749Z,22.67
2023-03-19T09:21:50.920Z,22.45
2023-03-19T09:24:19.240Z,22.87
2023-03-19T09:26:46.815Z,23.15
2023-03-19T09:29:13.940Z,22.90
2023-03-19T09:31:41.886Z,23.81
2023-03-19T09:34:08.957Z,23.85
2023-03-19T09:36:38.029Z,23.96
2023-03-19T09:39:06.303Z,24.61
2023-03-19T09:41:51.687Z,24.98
2023-03-19T09:44:29.473Z,25.52
2023-03-19T09:47:05.107Z,25.99
2023-03-19T09:49:39.516Z,25.34
2023-03-19T09:52:20.729Z,25.49
2023-03-19T09:54:53.109Z,25.44
2023-03-19T09:57:20.364Z,26.87
2023-03-19T09:59:48.277Z,26.47
2023-03-19T10:02:17.221Z,26.70
2023-03-19T10:04:49.300Z,26.80
2023-03-19T10:07:33.262Z,26.94
2023-03-19T10:09:59.938Z,26.38
2023-03-19T10:12:43.846Z,26.67
2023-03-19T10:15:26.984Z,27.42
2023-03-19T10:18:12.816Z,27.99
2023-03-19T10:20:41.110Z,27.39
2023-03-19T10:23:26.769Z,27.00
2023-03-19T10:25:58.273Z,27.16
2023-03-19T10:28:28.868Z,27.42
2023-03-19T10:31:06.256Z,27.31
2023-03-19T10:33:44.313Z,27.90
2023-03-19T10:36:14.793Z,27.85
2023-03-19T10:38:44.244Z,27.63
2023-03-19T10:41:30.075Z,27.67
2023-03-19T10:44:07.057Z,27.88
2023-03-19T10:46:38.968Z,27.87
2023-03-19T10:49:12.253Z,27.91
2023-03-19T10:51:40.141Z,27.88
2023-03-19T10:54:23.487Z,28.44
2023-03-19T10:56:51.421Z,27.89
2023-03-19T10:59:32.934Z,28.67
2023-03-19T11:02:07.935Z,27.86
2023-03-19T11:04:34.658Z,27.60
2023-03-19T11:07:11.412Z,27.93
2023-03-19T11:09:42.992Z,27.00
2023-03-19T11:12:29.521Z,28.10
2023-03-19T11:14:58.069Z,27.89
2023-03-19T11:17:37.272Z,26.56
2023-03-19T11:20:20.245Z,27.01
2023-03-19T11:22:50.094Z,27.64
2023-03-19T11:25:28.408Z,26.58
2023-03-19T11:28:02.482Z,27.07
2023-03-19T11:30:39.052Z,26.98
2023-03-19T11:33:14.033Z,27.68
2023-03-19T11:35:53.637Z,26.78
2023-03-19T11:38:34.772Z,26.50
2023-03-19T11:41:23.961Z,26.04
2023-03-19T11:43:56.748Z,25.06
2023-03-19T11:46:46.358Z,25.10
2023-03-19T11:49:37.301Z,25.23
2023-03-19T11:52:08.941Z,24.79
2023-03-19T11:54:36.834Z,25.01
2023-03-19T11:57:11.509Z,24.82
2023-03-19T11:59:55.040Z,25.00
2023-03-19T12:02:55.692Z,24.25
2023-03-19T12:05:26.919Z,24.90
2023-03-19T12:08:11.191Z,24.36
2023-03-19T12:10:53.687Z,24.67
2023-03-19T12:13:44.729Z,23.56
2023-03-19T12:16:22.654Z,24.17
2023-03-19T12:18:56.831Z,23.92
2023-03-19T12:21:25.909Z,23.95
2023-03-19T12:23:52.745Z,24.61
2023-03-19T12:26:40.599Z,25.17
2023-03-19T12:29:15.172Z,23.94
2023-03-19T12:31:58.435Z,24.54
2023-03-19T12:34:39.879Z,24.11
2023-03-19T12:37:34.505Z,24.10
2023-03-19T12:40:07.881Z,23.83
2023-03-19T12:42:40.174Z,23.93
2023-03-19T12:45:33.229Z,23.75
2023-03-19T12:48:11.184Z,23.82
2023-03-19T12:50:41.794Z,24.34
2023-03-19T12:53:25.506Z,24.11
2023-03-19T12:55:58.507Z,23.99
2023-03-19T12:58:38.249Z,23.45
2023-03-19T13:01:09.089Z,23.38
2023-03-19T13:03:45.083Z,22.52
2023-03-19T13:06:20.216Z,23.09
2023-03-19T13:09:07.569Z,22.59
2023-03-19T13:11:35.390Z,23.56
2023-03-19T13:14:15.556Z,22.80
2023-03-19T13:17:02.202Z,22.99
2023-03-19T13:19:40.476Z,22.94
2023-03-19T13:22:12.544Z,23.50
2023-03-19T13:24:43.401Z,23.60
2023-03-19T13:27:19.414Z,23.64
2023-03-19T13:30:14.306Z,23.82
2023-03-19T13:32:48.159Z,23.92
2023-03-19T13:35:16.660Z,23.66
2023-03-19T13:37:44.253Z,24.21
2023-03-19T13:40:42.277Z,24.37
2023-03-19T13:43:28.463Z,24.19
2023-03-19T13:46:12.448Z,24.14
2023-03-19T13:48:52.068Z,24.10
2023-03-19T13:51:18.946Z,24.29
2023-03-19T13:53:54.319Z,24.37
2023-03-19T13:56:29.902Z,24.14
2023-03-19T13:59:15.755Z,24.37
2023-03-19T14:01:50.720Z,24.60
2023-03-19T14:04:22.540Z,24.94
2023-03-19T14:06:53.206Z,25.18
2023-03-19T14:09:38.394Z,24.94
2023-03-19T14:12:15.970Z,24.53
2023-03-19T14:14:47.124Z,25.09
2023-03-19T14:17:19.859Z,24.70
2023-03-19T14:19:47.151Z,24.47
2023-03-19T14:22:34.131Z,24.54
2023-03-19T14:28:10.522Z,24.18
2023-03-19T14:30:40.754Z,24.73
2023-03-19T14:33:18.428Z,24.54
2023-03-19T14:35:46.762Z,24.76
2023-03-19T14:38:29.564Z,25.23
2023-03-19T14:40:56.393Z,25.49
2023-03-19T14:43:42.527Z,25.93
2023-03-19T14:46:19.958Z,26.37
2023-03-19T14:49:22.284Z,26.49
2023-03-19T14:52:04.534Z,26.30
2023-03-19T14:54:44.974Z,26.65
2023-03-19T14:57:20.561Z,26.70
2023-03-19T14:59:49.413Z,26.86
2023-03-19T15:02:47.344Z,27.02
2023-03-19T15:05:30.700Z,27.55
2023-03-19T15:08:03.210Z,27.47
2023-03-19T15:10:44.884Z,27.76
2023-03-19T15:13:18.660Z,28.13
2023-03-19T15:16:07.189Z,28.67
2023-03-19T15:18:36.978Z,28.69
2023-03-19T15:21:05.495Z,28.53
2023-03-19T15:23:32.976Z,28.62
2023-03-19T15:26:02.253Z,29.18
2023-03-19T15:28:35.508Z,28.95
2023-03-19T15:31:26.356Z,29.47
2023-03-19T15:33:53.598Z,29.78
2023-03-19T15:36:27.531Z,30.21
2023-03-19T15:39:00.846Z,30.16
2023-03-19T15:41:32.106Z,30.31
2023-03-19T15:44:01.599Z,30.80
2023-03-19T15:46:34.968Z,30.53
2023-03-19T15:49:13.205Z,30.72
2023-03-19T15:51:40.742Z,31.43
2023-03-19T15:54:08.798Z,31.82
2023-03-19T15:56:35.835Z,31.49
2023-03-19T15:59:03.633Z,31.74
2023-03-19T16:01:33.321Z,32.17
2023-03-19T16:04:04.783Z,33.53
2023-03-19T16:06:36.805Z,33.09
2023-03-19T16:09:13.707Z,34.44
2023-03-19T16:11:44.013Z,34.77
2023-03-19T16:14:14.569Z,35.96
2023-03-19T16:16:42.222Z,36.32
2023-03-19T16:19:28.699Z,36.49
2023-03-19T16:21:55.551Z,37.55
2023-03-19T16:24:24.972Z,37.29
2023-03-19T16:26:52.379Z,37.73
2023-03-19T16:29:22.988Z,38.79
2023-03-19T16:31:52.574Z,39.30
2023-03-19T16:34:32.116Z,39.37
2023-03-19T16:37:00.376Z,40.83
2023-03-19T16:39:30.684Z,40.87
2023-03-19T16:42:12.996Z,41.20
2023-03-19T16:44:41.859Z,41.81
2023-03-19T16:47:11.576Z,41.89
2023-03-19T16:49:38.587Z,41.68
2023-03-19T16:52:06.761Z,41.50
2023-03-19T16:54:33.613Z,42.70
2023-03-19T16:57:00.825Z,42.66
2023-03-19T16:59:29.846Z,43.32
2023-03-19T17:01:57.590Z,44.01
2023-03-19T17:04:24.478Z,43.88
2023-03-19T17:06:51.255Z,44.24
2023-03-19T17:09:18.029Z,44.97
2023-03-19T17:11:45.266Z,45.48
2023-03-19T17:14:19.386Z,46.30
2023-03-19T17:16:50.588Z,46.76
2023-03-19T17:19:20.940Z,47.14
2023-03-19T17:21:50.750Z,47.66
2023-03-19T17:24:22.453Z,48.06
2023-03-19T17:26:49.428Z,48.60
2023-03-19T17:29:16.188Z,48.99
2023-03-19T17:31:43.130Z,49.12
2023-03-19T17:34:16.608Z,49.50
2023-03-19T17:36:49.485Z,49.55
2023-03-19T17:39:17.386Z,49.98
2023-03-19T17:41:44.637Z,50.62
2023-03-19T17:44:11.782Z,51.00
2023-03-19T17:46:41.738Z,51.29
2023-03-19T17:49:19.171Z,52.16
2023-03-19T17:51:46.576Z,52.69
2023-03-19T17:54:13.900Z,53.46
2023-03-19T17:56:43.288Z,54.06
2023-03-19T17:59:10.998Z,54.43
2023-03-19T18:01:40.460Z,54.99
2023-03-19T18:04:10.953Z,55.58
2023-03-19T18:06:41.552Z,55.34
2023-03-19T18:09:19.157Z,56.05
2023-03-19T18:11:46.487Z,56.08
2023-03-19T18:14:13.358Z,56.43
2023-03-19T18:16:40.907Z,56.93
2023-03-19T18:19:19.928Z,57.16
2023-03-19T18:21:46.922Z,56.72
2023-03-19T18:24:14.748Z,57.34
2023-03-19T18:26:41.558Z,57.59
2023-03-19T18:29:09.181Z,57.54
2023-03-19T18:31:37.155Z,57.81
2023-03-19T18:34:08.958Z,58.36
2023-03-19T18:36:36.347Z,58.70
2023-03-19T18:39:03.560Z,58.44
2023-03-19T18:41:30.469Z,58.71
2023-03-19T18:44:05.863Z,59.88
2023-03-19T18:46:50.380Z,60.78
2023-03-19T18:49:24.733Z,60.84
2023-03-19T18:52:02.488Z,60.87
2023-03-19T18:54:32.223Z,61.33
2023-03-19T18:57:01.311Z,61.37
2023-03-19T18:59:33.044Z,61.44
2023-03-19T19:02:18.147Z,61.76
2023-03-19T19:04:45.041Z,62.08
2023-03-19T19:07:14.761Z,62.29
2023-03-19T19:09:41.520Z,62.13
2023-03-19T19:12:10.577Z,62.14
2023-03-19T19:14:37.695Z,62.30
2023-03-19T19:17:04.803Z,62.47
2023-03-19T19:19:31.725Z,62.67
2023-03-19T19:21:58.620Z,62.53
2023-03-19T19:24:25.494Z,62.92
2023-03-19T19:26:54.108Z,63.32
2023-03-19T19:29:25.387Z,63.15
2023-03-19T19:31:53.570Z,63.04
2023-03-19T19:34:21.522Z,62.90
2023-03-19T19:36:48.535Z,62.77
2023-03-19T19:39:15.356Z,62.65
2023-03-19T19:41:43.787Z,62.48
2023-03-19T19:44:19.316Z,62.92
2023-03-19T19:47:01.811Z,62.78
2023-03-19T19:49:28.586Z,62.97
2023-03-19T19:51:56.288Z,62.87
2023-03-19T19:54:25.115Z,63.03
2023-03-19T19:56:52.261Z,63.06
2023-03-19T19:59:21.674Z,63.21
2023-03-19T20:01:48.651Z,63.27
2023-03-19T20:04:15.647Z,63.56
2023-03-19T20:06:42.387Z,63.72
2023-03-19T20:09:24.647Z,63.87
2023-03-19T20:11:52.469Z,64.66
2023-03-19T20:14:19.239Z,65.17
2023-03-19T20:16:46.036Z,65.50
2023-03-19T20:19:19.013Z,65.39
2023-03-19T20:21:46.099Z,65.83
2023-03-19T20:24:13.364Z,65.93
2023-03-19T20:26:41.692Z,66.20
2023-03-19T20:29:14.639Z,66.36
2023-03-19T20:31:42.920Z,66.25
2023-03-19T20:34:22.513Z,66.20
2023-03-19T20:36:56.022Z,65.67
2023-03-19T20:39:23.283Z,65.33
2023-03-19T20:41:51.682Z,65.43
2023-03-19T20:44:25.776Z,66.05
2023-03-19T20:46:52.610Z,66.52
2023-03-19T20:49:19.554Z,67.04
2023-03-19T20:51:46.384Z,67.46
2023-03-19T20:54:13.137Z,67.35
2023-03-19T20:56:41.022Z,67.01
2023-03-19T20:59:11.941Z,66.93
2023-03-19T21:01:38.701Z,67.08
2023-03-19T21:04:05.518Z,67.12
2023-03-19T21:06:46.129Z,66.97
2023-03-19T21:09:18.888Z,67.08
2023-03-19T21:11:45.760Z,66.58
2023-03-19T21:14:16.366Z,66.50
2023-03-19T21:16:43.794Z,66.61
2023-03-19T21:19:10.606Z,66.87
2023-03-19T21:21:37.622Z,66.72
2023-03-19T21:24:10.705Z,66.56
2023-03-19T21:26:39.393Z,66.63
2023-03-19T21:29:14.765Z,66.83
2023-03-19T21:31:42.819Z,67.04
2023-03-19T21:34:13.973Z,67.35
2023-03-19T21:36:41.056Z,67.67
2023-03-19T21:39:07.853Z,67.73
2023-03-19T21:41:36.271Z,67.78
2023-03-19T21:44:07.647Z,67.80
2023-03-19T21:46:35.255Z,67.62
2023-03-19T21:49:02.476Z,67.69
2023-03-19T21:51:29.712Z,67.81
2023-03-19T21:53:56.556Z,67.63
2023-03-19T21:56:25.097Z,67.77
2023-03-19T21:58:52.955Z,67.87
2023-03-19T22:01:23.758Z,68.01
2023-03-19T22:03:52.147Z,68.39
2023-03-19T22:06:19.291Z,68.35
2023-03-19T22:08:48.268Z,68.49
2023-03-19T22:11:20.821Z,68.78
2023-03-19T22:13:48.367Z,68.81
2023-03-19T22:16:20.829Z,69.01
2023-03-19T22:18:48.006Z,68.49
2023-03-19T22:21:17.935Z,67.83
2023-03-19T22:23:46.410Z,67.03
2023-03-19T22:26:27.283Z,66.33
2023-03-19T22:28:56.046Z,65.56
2023-03-19T22:31:23.438Z,64.94
2023-03-19T22:33:50.555Z,64.36
2023-03-19T22:36:17.550Z,63.38
2023-03-19T22:38:45.088Z,62.79
2023-03-19T22:41:17.482Z,62.21
2023-03-19T22:43:46.245Z,61.35
2023-03-19T22:46:16.822Z,60.77
2023-03-19T22:48:48.089Z,59.80
2023-03-19T22:51:18.398Z,59.64
2023-03-19T22:53:46.622Z,59.27
2023-03-19T22:56:15.113Z,59.12
2023-03-19T22:58:42.313Z,58.63
2023-03-19T23:01:25.794Z,58.59
2023-03-19T23:03:52.599Z,58.76
2023-03-19T23:06:30.078Z,58.68
2023-03-19T23:08:58.185Z,58.71
2023-03-19T23:11:25.624Z,58.57
2023-03-19T23:13:53.571Z,58.86
2023-03-19T23:16:24.181Z,58.60
2023-03-19T23:18:51.764Z,58.42
2023-03-19T23:21:19.622Z,57.97
2023-03-19T23:23:46.722Z,58.45
2023-03-19T23:26:25.634Z,58.53
2023-03-19T23:28:53.223Z,58.60
2023-03-19T23:31:20.119Z,58.75
2023-03-19T23:33:46.928Z,58.55
2023-03-19T23:36:14.162Z,57.88
2023-03-19T23:38:41.645Z,58.53
2023-03-19T23:41:18.285Z,58.85
2023-03-19T23:43:45.803Z,59.39
2023-03-19T23:46:12.694Z,59.73
2023-03-19T23:48:39.932Z,60.11
2023-03-19T23:51:11.043Z,60.70
2023-03-19T23:53:38.319Z,61.23
2023-03-19T23:56:12.400Z,61.45
2023-03-19T23:58:43.268Z,62.29
